Granite Falls, NC (28630)

11:45 AM EST on December 06, 2016 (GMT -0500)
Granite Falls- Downtown | | Change Station

Elev 1198 ft 35.80 °N, 81.43 °W | Updated 21 seconds ago

Light Rain
Light Rain Mist
41.4 °F
Feels Like 39 °F
N
4.0
Wind Variable Wind from NE

Today
High -- | Low -- °F
--% Chance of Precip.
Yesterday
High -- | Low -- °F
Precip. -- in
Pressure 29.80 in
Visibility 2.5 miles
Clouds Mostly Cloudy 600 ft
Overcast 1100 ft
Windchill 39 °F
Dew Point 41 °F
Humidity 98%
Rainfall 0.09 in
Snow Depth Not available.
7:22 AM 5:11 PM
Waxing Crescent, 43% visible
SPECI KHKY 061643Z 03008KT 2 1/2SM -RA BR BKN006 OVC011 06/06 A2980 RMK AO2 PRESFR P0005 T00560056
Pressure 29.80 in
Visibility 2.5 miles
Clouds Mostly Cloudy 600 ft
Overcast 1100 ft
Windchill 39 °F
Dew Point 41 °F
Humidity 98%
Rainfall 0.09 in
Snow Depth Not available.
7:22 AM 5:11 PM
Waxing Crescent, 43% visible
SPECI KHKY 061643Z 03008KT 2 1/2SM -RA BR BKN006 OVC011 06/06 A2980 RMK AO2 PRESFR P0005 T00560056

10-Day Weather Forecast

Almanac

Astronomy

Dec. 06, 2016 Rise Set
Actual Time
Civil Twilight
Nautical Twilight
Astronomical Twilight
Moon
Length of Visible Light
Length of Day
Tomorrow will be .
, % of the Moon is Illuminated

Today's Extremes

State Highs State Lows

Community

WunderPhotos

Upload Photos

1,955,959 photos uploaded!

WunderBlog® & News

Nearby

Air Quality

  Air Quality AQ Index Pollutant
Not available.

Snow Depth

Station Depth Elevation

Earthquake Activity

City Distance Mag. Time & Date
Minimum magnitude displayed is 2.5.

Coastal Water Temperatures

Place Temperature

Stations

Nearby Weather Stations

Station Location Temp. Windchill Dew Point Humidity Wind Precip. Elev Updated Type
                   

Watches & Warnings

There are currently no watches in effect.